Time;durP1;ratioP1;P1;durP2;ratioP2;P2;SDS_P1;SDS_P2;PMS_P1;PMS_P2;Temp;Humidity;BMP_temperature;BMP_pressure;BME280_temperature;BME280_humidity;BME280_pressure;Samples;Min_cycle;Max_cycle;Signal;HPM_P1;HPM_P2
2024/03/20 00:01:49;;;;;;;28.98;10.38;;;;;;;1.53;65.13;100835.41;5050142;28;20033;-76
2024/03/20 00:04:16;;;;;;;25.08;11.60;;;;;;;1.43;65.37;100837.59;5055263;28;20045;-77
2024/03/20 00:06:42;;;;;;;35.47;17.92;;;;;;;1.13;64.96;100816.53;5043479;28;20039;-77
2024/03/20 00:09:08;;;;;;;28.90;15.00;;;;;;;0.94;65.02;100825.94;5071577;28;20040;-76
2024/03/20 00:11:35;;;;;;;25.02;12.50;;;;;;;0.68;65.17;100825.59;5049407;28;20036;-79
2024/03/20 00:14:05;;;;;;;26.63;13.10;;;;;;;0.29;66.06;100769.09;5031630;28;20040;-81
2024/03/20 00:16:35;;;;;;;25.65;11.43;;;;;;;0.77;65.78;100842.22;5047599;28;20040;-79
2024/03/20 00:19:01;;;;;;;25.08;11.57;;;;;;;0.65;65.12;100827.13;5046368;28;20045;-79
2024/03/20 00:21:28;;;;;;;25.38;11.85;;;;;;;0.73;66.29;100834.38;5057714;28;20040;-79
2024/03/20 00:23:54;;;;;;;24.38;11.50;;;;;;;0.88;65.86;100834.22;5041742;28;20047;-71
2024/03/20 00:26:20;;;;;;;27.48;11.70;;;;;;;0.75;66.55;100780.66;5042153;28;20509;-70
2024/03/20 00:28:46;;;;;;;21.85;10.82;;;;;;;1.22;66.88;100834.00;5052427;28;20041;-70
2024/03/20 00:31:12;;;;;;;26.38;11.57;;;;;;;1.25;66.25;100818.78;5056733;28;20033;-71
2024/03/20 00:33:38;;;;;;;26.48;11.52;;;;;;;1.43;66.69;100845.28;5044699;28;20503;-70
2024/03/20 00:36:04;;;;;;;24.90;11.75;;;;;;;0.87;65.19;100770.09;5041760;28;20032;-72
2024/03/20 00:38:30;;;;;;;29.20;11.85;;;;;;;1.28;66.17;100835.19;5036357;28;20154;-71
2024/03/20 00:40:56;;;;;;;24.52;11.75;;;;;;;1.07;66.47;100788.06;5041315;28;20140;-71
2024/03/20 00:43:23;;;;;;;25.30;11.30;;;;;;;1.42;66.06;100838.38;5044689;28;20032;-71
2024/03/20 00:45:49;;;;;;;25.27;11.18;;;;;;;1.40;66.40;100832.31;5055169;28;20048;-70
2024/03/20 00:48:15;;;;;;;28.73;12.52;;;;;;;1.09;65.91;100801.84;5053234;28;20032;-72
2024/03/20 00:50:42;;;;;;;25.30;11.98;;;;;;;1.10;65.89;100813.84;5047588;28;20056;-71
2024/03/20 00:53:08;;;;;;;28.73;12.48;;;;;;;0.99;66.07;100811.66;5057843;28;20044;-72
2024/03/20 00:55:35;;;;;;;26.70;11.90;;;;;;;0.60;66.12;100756.06;5052821;28;20045;-71
2024/03/20 00:58:01;;;;;;;22.40;11.32;;;;;;;0.91;66.16;100815.53;5042497;28;20051;-72
2024/03/20 01:00:30;;;;;;;27.73;11.85;;;;;;;0.69;66.24;100794.03;5043434;28;20090;-72
2024/03/20 01:02:56;;;;;;;25.23;12.43;;;;;;;0.51;66.82;100775.22;5054920;28;20080;-71
2024/03/20 01:05:22;;;;;;;29.17;12.70;;;;;;;0.31;66.75;100736.75;5037157;28;20140;-72
2024/03/20 01:07:48;;;;;;;28.40;13.15;;;;;;;0.41;66.30;100758.56;5059607;28;20064;-71
2024/03/20 01:10:14;;;;;;;31.45;13.82;;;;;;;0.59;66.88;100805.53;5043792;28;20041;-72
2024/03/20 01:12:40;;;;;;;44.97;13.57;;;;;;;0.16;65.94;100759.06;5038559;28;20130;-71
2024/03/20 01:15:07;;;;;;;29.02;13.07;;;;;;;0.49;65.15;100823.84;5044671;28;20072;-73
2024/03/20 01:17:33;;;;;;;33.10;12.55;;;;;;;0.24;66.00;100817.50;5059295;28;20051;-73
2024/03/20 01:20:02;;;;;;;28.60;12.50;;;;;;;-0.09;66.47;100761.28;5033970;28;20206;-72
2024/03/20 01:22:40;;;;;;;32.72;12.70;;;;;;;0.25;66.53;100806.47;5058539;28;20095;-71
2024/03/20 01:25:07;;;;;;;27.90;13.32;;;;;;;0.08;66.44;100800.50;5045343;28;20158;-71
2024/03/20 01:27:38;;;;;;;23.80;12.38;;;;;;;0.19;66.77;100806.16;5028999;28;20040;-71
2024/03/20 01:30:05;;;;;;;32.00;13.30;;;;;;;-0.25;66.24;100751.97;5057136;28;20110;-72
2024/03/20 01:32:33;;;;;;;26.48;12.13;;;;;;;0.25;67.02;100833.75;5043229;28;20040;-71
2024/03/20 01:34:59;;;;;;;27.42;13.02;;;;;;;0.25;66.93;100815.81;5057577;28;20048;-72
2024/03/20 01:37:25;;;;;;;29.67;13.57;;;;;;;0.29;67.19;100825.41;5056998;28;20530;-72
2024/03/20 01:39:52;;;;;;;30.98;12.82;;;;;;;0.27;66.92;100840.72;5058225;28;20051;-71
2024/03/20 01:42:18;;;;;;;30.23;13.50;;;;;;;-0.25;67.30;100744.31;5022713;28;20032;-71
2024/03/20 01:44:44;;;;;;;29.85;13.80;;;;;;;0.09;66.58;100825.31;5048414;28;20089;-71
2024/03/20 01:47:11;;;;;;;32.03;12.77;;;;;;;0.05;67.54;100818.28;5056740;28;20119;-71
2024/03/20 01:49:38;;;;;;;23.55;11.48;;;;;;;0.02;66.77;100815.56;5054552;28;20083;-71
2024/03/20 01:52:06;;;;;;;25.85;11.75;;;;;;;0.04;67.37;100823.31;5057352;28;20059;-72
2024/03/20 01:54:33;;;;;;;26.73;11.75;;;;;;;-0.17;67.18;100777.94;5029204;28;20032;-72
2024/03/20 01:56:59;;;;;;;28.90;12.30;;;;;;;0.01;67.44;100793.31;5050221;28;20044;-70
2024/03/20 01:59:25;;;;;;;29.95;12.73;;;;;;;0.14;67.71;100813.63;5039746;28;20033;-71
2024/03/20 02:01:51;;;;;;;28.13;12.63;;;;;;;-0.14;67.07;100769.53;5045037;28;20508;-74
2024/03/20 02:04:17;;;;;;;26.35;11.98;;;;;;;0.12;66.89;100817.78;5053250;28;20055;-72
2024/03/20 02:06:43;;;;;;;29.55;12.95;;;;;;;-0.26;67.25;100759.56;5045170;28;20039;-71
2024/03/20 02:09:10;;;;;;;28.70;13.05;;;;;;;-0.03;67.07;100804.22;5055144;28;20045;-71
2024/03/20 02:11:36;;;;;;;30.98;13.27;;;;;;;-0.17;67.41;100786.47;5049092;28;20041;-71
2024/03/20 02:14:03;;;;;;;28.17;12.85;;;;;;;-0.15;67.49;100784.03;5033227;28;20120;-71
2024/03/20 02:16:31;;;;;;;31.83;13.32;;;;;;;-0.24;67.35;100770.75;5046135;28;20037;-72
2024/03/20 02:18:57;;;;;;;31.17;12.73;;;;;;;-0.13;67.79;100784.97;5054493;28;20082;-71
2024/03/20 02:21:24;;;;;;;27.92;12.63;;;;;;;0.12;67.86;100838.25;5027962;28;20037;-72
2024/03/20 02:23:51;;;;;;;33.65;12.77;;;;;;;-0.11;67.20;100806.38;5056710;28;20048;-71
2024/03/20 02:26:18;;;;;;;31.00;13.45;;;;;;;0.04;67.51;100833.56;5055635;28;20136;-71
2024/03/20 02:28:45;;;;;;;31.92;13.93;;;;;;;-0.11;67.56;100802.97;5045678;28;20040;-71
2024/03/20 02:31:17;;;;;;;36.83;13.70;;;;;;;-0.15;67.35;100801.94;5056339;28;20564;-71
2024/03/20 02:33:43;;;;;;;27.15;13.63;;;;;;;-0.13;67.01;100840.38;5039664;28;20051;-71
2024/03/20 02:36:09;;;;;;;28.90;13.38;;;;;;;-0.51;66.99;100776.22;5056380;28;20059;-71
2024/03/20 02:38:37;;;;;;;29.40;13.85;;;;;;;-0.21;67.28;100832.31;5073019;28;20416;-70
2024/03/20 02:41:04;;;;;;;30.33;14.13;;;;;;;-0.26;67.24;100836.31;5032027;28;20083;-72
2024/03/20 02:43:31;;;;;;;25.05;13.10;;;;;;;-0.50;67.54;100793.31;5045908;28;20042;-72
2024/03/20 02:45:57;;;;;;;28.95;14.20;;;;;;;-0.32;67.78;100835.19;5044061;28;20117;-71
2024/03/20 02:48:25;;;;;;;33.67;14.05;;;;;;;-0.34;67.51;100833.34;5057944;28;20033;-71
2024/03/20 02:50:52;;;;;;;29.75;14.80;;;;;;;-0.25;67.18;100850.84;5043413;28;20492;-70
2024/03/20 02:53:18;;;;;;;31.67;14.57;;;;;;;-0.55;67.93;100805.88;5042672;28;20088;-71
2024/03/20 02:55:46;;;;;;;31.23;13.40;;;;;;;-0.41;67.83;100824.50;5055540;28;20131;-71
2024/03/20 02:58:12;;;;;;;32.67;14.40;;;;;;;-0.22;68.09;100854.44;5057582;28;20036;-70
2024/03/20 03:00:39;;;;;;;30.48;13.13;;;;;;;-0.36;68.01;100833.28;5073978;28;20036;-72
2024/03/20 03:03:08;;;;;;;31.65;13.38;;;;;;;-0.50;67.74;100811.22;5073925;28;20505;-70
2024/03/20 03:05:35;;;;;;;29.05;13.80;;;;;;;-0.25;67.92;100853.41;5049292;28;20052;-70
2024/03/20 03:08:03;;;;;;;33.72;14.20;;;;;;;-0.34;67.47;100849.59;5034502;28;20039;-71
2024/03/20 03:10:30;;;;;;;28.67;13.88;;;;;;;-0.39;67.31;100848.47;5034101;28;20147;-72
2024/03/20 03:12:56;;;;;;;30.73;13.88;;;;;;;-0.69;67.96;100806.84;5030661;28;20045;-70
2024/03/20 03:15:23;;;;;;;26.17;13.35;;;;;;;-0.36;66.91;100869.09;5061668;28;20100;-70
2024/03/20 03:17:56;;;;;;;30.33;13.40;;;;;;;-0.56;67.89;100839.91;5033232;28;20040;-71
2024/03/20 03:20:26;;;;;;;27.40;12.93;;;;;;;-0.40;67.69;100866.28;5061232;28;20040;-71
2024/03/20 03:22:54;;;;;;;27.90;12.85;;;;;;;-0.51;67.07;100829.91;5040511;28;20032;-71
2024/03/20 03:25:20;;;;;;;29.05;13.07;;;;;;;-0.37;67.38;100845.97;5040414;28;20033;-71
2024/03/20 03:27:48;;;;;;;32.05;13.73;;;;;;;-0.55;67.55;100810.97;5045182;28;20176;-73
2024/03/20 03:30:14;;;;;;;29.70;13.57;;;;;;;-0.74;67.55;100781.00;5031547;28;20040;-72
2024/03/20 03:32:41;;;;;;;32.70;13.63;;;;;;;-0.43;67.42;100826.09;5057419;28;20481;-71
2024/03/20 03:35:08;;;;;;;30.98;13.30;;;;;;;-0.28;67.61;100841.38;5075229;28;20536;-72
2024/03/20 03:37:35;;;;;;;30.85;14.07;;;;;;;-0.58;67.22;100795.47;5059223;28;20048;-72
2024/03/20 03:40:05;;;;;;;33.60;13.43;;;;;;;-0.63;67.67;100763.66;5056810;28;20046;-72
2024/03/20 03:42:33;;;;;;;39.55;14.80;;;;;;;-0.36;67.58;100823.06;5064229;28;20123;-73
2024/03/20 03:44:59;;;;;;;26.23;13.52;;;;;;;-0.29;67.24;100838.69;5059318;28;20036;-73
2024/03/20 03:47:30;;;;;;;30.63;14.18;;;;;;;-0.18;67.69;100847.81;5058649;28;20031;-72
2024/03/20 03:49:59;;;;;;;26.48;13.68;;;;;;;-0.44;67.88;100801.31;5049937;28;20062;-72
2024/03/20 03:52:26;;;;;;;29.63;14.18;;;;;;;-0.22;67.11;100833.13;5048138;28;20253;-73
2024/03/20 03:54:52;;;;;;;28.33;14.23;;;;;;;-0.48;67.38;100784.03;5058043;28;20134;-72
2024/03/20 03:57:19;;;;;;;30.30;14.23;;;;;;;-0.23;67.73;100816.00;5055654;28;20530;-73
2024/03/20 03:59:45;;;;;;;31.00;13.23;;;;;;;0.00;67.24;100842.78;5075003;28;20490;-72
2024/03/20 04:02:12;;;;;;;28.98;14.27;;;;;;;-0.17;67.73;100801.84;5058738;28;20035;-73
2024/03/20 04:04:38;;;;;;;32.05;14.45;;;;;;;0.21;67.77;100842.09;5054916;28;20040;-71
2024/03/20 04:07:07;;;;;;;27.00;14.27;;;;;;;0.22;67.55;100823.38;5057588;28;20042;-73
2024/03/20 04:09:33;;;;;;;32.67;15.02;;;;;;;0.35;67.84;100835.06;5058736;28;20044;-72
2024/03/20 04:12:02;;;;;;;30.95;14.63;;;;;;;0.42;67.96;100827.78;5043279;28;20068;-72
2024/03/20 04:14:28;;;;;;;31.15;14.80;;;;;;;0.19;67.43;100767.75;5026536;28;20047;-71
2024/03/20 04:16:54;;;;;;;34.17;15.13;;;;;;;0.78;66.94;100856.78;5059263;28;20047;-72
2024/03/20 04:19:22;;;;;;;28.17;14.60;;;;;;;0.54;66.81;100798.44;5043484;28;20055;-72
2024/03/20 04:21:49;;;;;;;31.92;14.40;;;;;;;0.86;67.31;100840.97;5059261;28;20116;-72
2024/03/20 04:24:15;;;;;;;28.30;15.43;;;;;;;1.10;67.35;100857.44;5057182;28;20051;-71
2024/03/20 04:26:41;;;;;;;38.47;15.88;;;;;;;1.08;67.23;100824.03;5045902;28;20032;-72
2024/03/20 04:29:08;;;;;;;36.03;16.00;;;;;;;1.38;66.73;100861.25;5074955;28;20115;-73
2024/03/20 04:31:34;;;;;;;42.75;19.35;;;;;;;1.47;66.37;100866.81;5060170;28;20047;-69
2024/03/20 04:34:02;;;;;;;38.90;17.77;;;;;;;1.27;66.31;100814.59;5033110;28;20040;-72
2024/03/20 04:36:28;;;;;;;38.42;15.48;;;;;;;1.61;66.18;100855.47;5057994;28;20366;-72
2024/03/20 04:38:54;;;;;;;36.88;17.17;;;;;;;1.57;66.02;100817.63;5043384;28;20369;-73
2024/03/20 04:41:22;;;;;;;32.08;14.25;;;;;;;2.09;66.12;100867.81;5050668;28;20406;-73
2024/03/20 04:43:51;;;;;;;32.97;15.27;;;;;;;2.01;65.88;100824.63;5061140;28;20127;-73
2024/03/20 04:46:17;;;;;;;27.45;14.60;;;;;;;2.38;65.64;100845.03;5043020;28;20044;-74
2024/03/20 04:48:43;;;;;;;25.55;13.90;;;;;;;2.66;65.60;100853.88;5063775;28;20147;-75
2024/03/20 04:51:12;;;;;;;27.70;15.35;;;;;;;2.97;65.41;100842.22;5047645;28;20503;-73
2024/03/20 04:53:39;;;;;;;28.60;15.60;;;;;;;3.49;65.12;100865.59;5058816;28;20032;-75
2024/03/20 04:56:05;;;;;;;31.38;15.15;;;;;;;3.75;65.03;100832.19;5062472;28;20044;-73
2024/03/20 04:58:31;;;;;;;28.85;14.95;;;;;;;4.36;64.17;100866.03;5061702;28;20043;-73
2024/03/20 05:00:57;;;;;;;29.45;14.55;;;;;;;4.53;63.23;100844.25;5079663;28;20040;-71
2024/03/20 05:03:23;;;;;;;30.33;15.18;;;;;;;4.80;63.17;100866.59;5047608;28;20062;-73
2024/03/20 05:05:49;;;;;;;29.00;14.35;;;;;;;4.71;63.06;100821.59;5062642;28;20044;-72
2024/03/20 05:08:15;;;;;;;27.05;14.40;;;;;;;5.33;62.40;100857.91;5048407;28;20039;-72
2024/03/20 05:10:42;;;;;;;29.92;15.40;;;;;;;6.16;61.92;100869.69;5051273;28;20052;-70
2024/03/20 05:13:08;;;;;;;27.23;14.25;;;;;;;7.18;60.62;100865.22;5084683;28;20029;-68
2024/03/20 05:15:39;;;;;;;27.95;14.18;;;;;;;7.97;60.24;100856.44;5054663;28;20644;-71
2024/03/20 05:18:05;;;;;;;34.85;16.10;;;;;;;8.41;59.58;100820.03;5047112;28;20504;-70
2024/03/20 05:20:31;;;;;;;26.92;15.05;;;;;;;9.04;57.90;100834.88;5035197;28;20123;-72
2024/03/20 05:22:57;;;;;;;32.10;16.02;;;;;;;9.17;56.29;100867.03;5036939;28;20051;-71
2024/03/20 05:25:24;;;;;;;34.15;16.30;;;;;;;9.03;55.85;100825.31;5043701;28;20392;-73
2024/03/20 05:27:50;;;;;;;31.33;16.02;;;;;;;8.92;55.09;100845.94;5053491;28;20036;-71
2024/03/20 05:30:16;;;;;;;37.40;16.23;;;;;;;8.50;52.84;100850.47;5045747;28;20131;-71
2024/03/20 05:32:42;;;;;;;34.35;16.92;;;;;;;7.93;54.28;100862.41;5059901;28;20036;-72
2024/03/20 05:35:08;;;;;;;33.63;16.73;;;;;;;7.73;53.27;100843.88;5043057;28;20051;-74
2024/03/20 05:37:35;;;;;;;27.92;15.75;;;;;;;7.80;53.33;100874.25;5062677;28;20058;-72
2024/03/20 05:40:01;;;;;;;31.02;16.15;;;;;;;7.76;53.02;100880.22;5044939;28;20044;-73
2024/03/20 05:42:27;;;;;;;33.42;16.65;;;;;;;7.43;52.94;100851.06;5048745;28;20139;-72
2024/03/20 05:44:53;;;;;;;43.78;21.88;;;;;;;7.21;52.82;100876.50;5033616;28;20562;-72
2024/03/20 05:47:20;;;;;;;47.72;23.25;;;;;;;6.67;51.56;100897.66;5043928;28;20043;-73
2024/03/20 05:49:46;;;;;;;47.80;25.38;;;;;;;6.45;52.92;100869.56;5077020;28;20044;-74
2024/03/20 05:52:12;;;;;;;54.20;28.08;;;;;;;6.30;53.00;100828.66;5061183;28;20036;-73
2024/03/20 05:54:38;;;;;;;53.63;27.15;;;;;;;6.70;52.57;100890.84;5060335;28;20096;-73
2024/03/20 05:57:07;;;;;;;54.25;27.42;;;;;;;6.63;52.42;100881.19;5049249;28;20036;-72
2024/03/20 05:59:33;;;;;;;50.13;26.00;;;;;;;6.43;52.77;100847.94;5034609;28;20474;-73
2024/03/20 06:01:59;;;;;;;52.58;25.50;;;;;;;6.14;52.86;100808.44;5078074;28;20036;-72
2024/03/20 06:04:25;;;;;;;54.00;25.42;;;;;;;6.42;52.54;100833.28;5053273;28;20047;-73
2024/03/20 06:06:51;;;;;;;53.40;25.88;;;;;;;6.37;52.45;100828.81;5037140;28;20040;-74
2024/03/20 06:09:18;;;;;;;65.00;29.13;;;;;;;6.54;52.56;100861.13;5030647;28;20044;-72
2024/03/20 06:11:44;;;;;;;51.25;25.05;;;;;;;6.77;52.61;100897.03;5034708;28;20029;-73
2024/03/20 06:14:10;;;;;;;59.22;27.52;;;;;;;6.76;52.29;100833.19;5028984;28;20086;-74
2024/03/20 06:16:40;;;;;;;55.95;26.83;;;;;;;7.29;52.29;100873.22;5060369;28;20041;-77
2024/03/20 06:19:06;;;;;;;55.25;24.98;;;;;;;7.66;51.23;100893.00;5056618;28;20044;-76
2024/03/20 06:21:32;;;;;;;55.65;25.00;;;;;;;6.37;49.48;100802.97;5056229;28;20028;-75
2024/03/20 06:23:59;;;;;;;54.60;26.58;;;;;;;6.59;51.13;100840.59;5045603;28;20066;-75
2024/03/20 06:26:25;;;;;;;55.88;26.50;;;;;;;6.96;52.26;100861.25;5048902;28;20037;-73
2024/03/20 06:28:52;;;;;;;48.75;24.95;;;;;;;7.05;51.47;100794.19;5033339;28;20052;-74
2024/03/20 06:31:18;;;;;;;56.25;26.27;;;;;;;8.01;51.02;100896.25;5054815;28;20588;-74
2024/03/20 06:33:45;;;;;;;59.03;28.17;;;;;;;8.53;51.12;100865.22;5034410;28;20075;-75
2024/03/20 06:36:11;;;;;;;53.70;27.77;;;;;;;9.56;51.21;100823.38;5058303;28;20115;-73
2024/03/20 06:38:37;;;;;;;52.50;27.20;;;;;;;11.18;50.00;100875.09;5056175;28;20063;-75
2024/03/20 06:41:04;;;;;;;48.95;24.17;;;;;;;13.09;48.78;100838.03;5032044;28;20051;-75
2024/03/20 06:43:40;;;;;;;39.45;22.27;;;;;;;15.36;46.83;100854.78;5025117;28;20047;-75
2024/03/20 06:46:06;;;;;;;42.85;22.30;;;;;;;17.59;43.95;100866.97;5056615;28;20041;-84
2024/03/20 06:48:32;;;;;;;45.47;23.88;;;;;;;18.63;40.79;100856.69;5040588;28;20074;-78
2024/03/20 06:50:59;;;;;;;40.60;22.13;;;;;;;19.15;39.21;100856.22;5024086;28;20074;-71
2024/03/20 06:53:26;;;;;;;44.92;22.50;;;;;;;20.15;37.78;100859.44;5039893;28;20040;-73
2024/03/20 06:55:55;;;;;;;31.48;17.90;;;;;;;21.45;35.81;100867.38;5070881;28;20043;-74
2024/03/20 06:58:24;;;;;;;25.10;17.65;;;;;;;22.34;34.36;100848.91;5054549;28;20536;-71
2024/03/20 07:00:50;;;;;;;26.58;17.50;;;;;;;23.36;32.79;100833.91;5057123;28;20037;-69
2024/03/20 07:03:18;;;;;;;23.27;17.13;;;;;;;23.86;30.74;100848.41;5041037;28;20151;-71
2024/03/20 07:05:44;;;;;;;25.83;15.10;;;;;;;24.70;30.10;100876.25;5050294;28;20458;-72
2024/03/20 07:08:10;;;;;;;22.48;15.35;;;;;;;25.60;29.01;100876.03;5071043;28;20039;-70
2024/03/20 07:10:39;;;;;;;19.60;14.40;;;;;;;26.50;27.71;100865.66;5045517;28;20044;-70
2024/03/20 07:13:06;;;;;;;22.67;13.73;;;;;;;27.09;26.69;100822.97;5030373;28;20094;-71
2024/03/20 07:15:36;;;;;;;25.80;15.77;;;;;;;28.14;25.81;100866.22;5054164;28;20068;-71
2024/03/20 07:18:03;;;;;;;23.10;15.32;;;;;;;28.98;25.32;100858.78;5041330;28;20036;-69
2024/03/20 07:20:31;;;;;;;21.92;14.93;;;;;;;29.97;24.63;100852.72;5054522;28;20051;-69
2024/03/20 07:22:57;;;;;;;22.75;14.90;;;;;;;30.44;23.49;100823.25;5030678;28;20093;-70
2024/03/20 07:25:27;;;;;;;25.13;14.90;;;;;;;31.40;22.64;100848.06;5070253;28;20039;-73
2024/03/20 07:27:54;;;;;;;21.60;14.57;;;;;;;32.25;22.21;100851.00;5033619;28;20131;-75
2024/03/20 07:30:21;;;;;;;21.40;15.15;;;;;;;33.00;21.60;100818.63;5040656;28;20114;-67
2024/03/20 07:32:48;;;;;;;24.45;15.05;;;;;;;33.80;20.89;100835.72;5050950;28;21245;-67
2024/03/20 07:35:15;;;;;;;24.25;16.25;;;;;;;34.18;20.23;100838.63;5068820;28;20062;-67
2024/03/20 07:37:42;;;;;;;21.17;16.00;;;;;;;34.53;19.40;100836.34;5068568;28;20122;-70
2024/03/20 07:40:09;;;;;;;23.77;17.90;;;;;;;34.85;19.10;100829.72;5052166;28;20047;-67
2024/03/20 07:42:39;;;;;;;30.00;20.98;;;;;;;35.12;18.82;100830.75;5050381;28;20072;-68
2024/03/20 07:45:07;;;;;;;25.08;20.33;;;;;;;35.43;18.47;100823.16;5028799;28;20109;-68
2024/03/20 07:47:35;;;;;;;24.48;20.27;;;;;;;35.73;17.95;100834.69;5053383;28;20044;-70
2024/03/20 07:50:03;;;;;;;25.73;21.33;;;;;;;36.26;17.68;100828.56;5060041;28;20046;-67
2024/03/20 07:52:29;;;;;;;23.73;19.70;;;;;;;36.44;16.66;100842.09;5043579;28;20036;-68
2024/03/20 07:54:55;;;;;;;24.30;20.60;;;;;;;36.60;16.69;100847.63;5051702;28;20086;-68
2024/03/20 07:57:21;;;;;;;26.67;21.45;;;;;;;37.11;16.72;100844.22;5056157;28;20093;-68
2024/03/20 07:59:47;;;;;;;23.75;17.85;;;;;;;37.19;15.58;100825.25;5038910;28;20052;-69
2024/03/20 08:02:13;;;;;;;19.52;15.63;;;;;;;36.38;16.33;100823.75;5050979;28;20065;-70
2024/03/20 08:04:41;;;;;;;23.30;15.88;;;;;;;36.49;16.03;100828.94;5048431;28;20170;-69
2024/03/20 08:07:07;;;;;;;16.52;14.73;;;;;;;36.94;15.79;100832.44;5042411;28;20479;-68
2024/03/20 08:09:33;;;;;;;18.60;13.18;;;;;;;36.66;15.27;100804.66;5042599;28;20037;-70
2024/03/20 08:12:00;;;;;;;16.65;12.95;;;;;;;35.33;14.92;100835.91;5044525;28;20047;-68
2024/03/20 08:14:27;;;;;;;14.38;11.90;;;;;;;34.49;15.15;100824.97;5056363;28;20068;-70
2024/03/20 08:16:53;;;;;;;16.75;11.10;;;;;;;34.36;15.80;100835.19;5052806;28;20131;-69
2024/03/20 08:19:20;;;;;;;11.63;9.70;;;;;;;33.58;14.33;100834.16;5054677;28;20521;-73
2024/03/20 08:21:46;;;;;;;16.77;9.93;;;;;;;31.14;16.04;100836.66;5026445;28;20044;-73
2024/03/20 08:24:12;;;;;;;15.45;9.77;;;;;;;31.04;17.03;100813.22;5048121;28;20042;-73
2024/03/20 08:26:39;;;;;;;14.93;10.38;;;;;;;31.18;16.92;100817.53;5046113;28;20078;-76
2024/03/20 08:29:05;;;;;;;15.02;9.48;;;;;;;31.53;16.99;100799.50;5024802;28;20093;-76
2024/03/20 08:31:31;;;;;;;18.02;10.73;;;;;;;33.20;16.67;100833.03;5045020;28;20354;-74
2024/03/20 08:33:57;;;;;;;15.40;11.00;;;;;;;34.26;16.12;100834.34;5039536;28;20117;-76
2024/03/20 08:36:23;;;;;;;15.38;10.32;;;;;;;34.83;15.52;100808.22;5054453;28;20065;-73
2024/03/20 08:38:50;;;;;;;17.50;10.25;;;;;;;34.17;15.18;100796.41;5029341;28;20053;-76
2024/03/20 08:41:16;;;;;;;15.90;10.75;;;;;;;33.34;13.82;100829.09;5032862;28;20142;-71
2024/03/20 08:43:44;;;;;;;14.82;11.15;;;;;;;32.85;14.77;100834.28;5056482;28;20131;-74
2024/03/20 08:46:10;;;;;;;20.55;11.90;;;;;;;31.93;15.53;100798.03;5022352;28;20041;-72
2024/03/20 08:48:36;;;;;;;16.85;11.48;;;;;;;33.45;15.51;100836.25;5049408;28;20052;-74
2024/03/20 08:51:03;;;;;;;19.70;10.50;;;;;;;34.38;15.87;100830.50;5042650;28;20571;-73
2024/03/20 08:53:32;;;;;;;16.95;10.30;;;;;;;34.16;15.15;100799.28;5047605;28;20040;-74
2024/03/20 08:55:59;;;;;;;15.55;10.50;;;;;;;34.06;13.90;100834.38;5055705;28;20048;-78
2024/03/20 08:58:26;;;;;;;18.23;10.02;;;;;;;34.56;15.37;100827.06;5046667;28;20126;-79
2024/03/20 09:00:53;;;;;;;17.05;11.10;;;;;;;35.01;14.53;100818.28;5030418;28;20122;-72
2024/03/20 09:03:20;;;;;;;15.43;10.45;;;;;;;34.47;15.20;100789.16;5027543;28;20040;-75
2024/03/20 09:05:47;;;;;;;15.73;10.35;;;;;;;34.35;14.83;100833.47;5030286;28;20075;-74
2024/03/20 09:08:13;;;;;;;16.58;9.98;;;;;;;33.14;15.24;100829.03;5054829;28;20067;-75
2024/03/20 09:10:39;;;;;;;14.88;10.25;;;;;;;31.37;14.43;100800.75;5042570;28;20048;-75
2024/03/20 09:13:05;;;;;;;14.80;9.90;;;;;;;30.72;15.63;100797.81;5051663;28;20037;-77
2024/03/20 09:15:32;;;;;;;15.23;10.15;;;;;;;31.46;15.59;100833.25;5055486;28;20094;-74
2024/03/20 09:17:58;;;;;;;16.17;10.10;;;;;;;32.93;16.87;100780.59;5042240;28;20057;-75
2024/03/20 09:20:30;;;;;;;13.82;9.90;;;;;;;33.18;15.24;100830.47;5044976;28;20043;-75
2024/03/20 09:22:58;;;;;;;16.00;10.90;;;;;;;33.37;16.08;100791.09;5046963;28;20044;-74
2024/03/20 09:25:24;;;;;;;14.63;10.68;;;;;;;34.73;15.45;100818.22;5061372;28;20051;-75
2024/03/20 09:27:51;;;;;;;18.70;10.27;;;;;;;35.07;13.95;100796.06;5074071;28;20039;-78
2024/03/20 09:30:20;;;;;;;16.90;11.30;;;;;;;33.59;15.18;100826.91;5058449;28;20410;-77
2024/03/20 09:32:47;;;;;;;17.35;11.25;;;;;;;34.48;15.52;100779.19;5041985;28;20447;-77
2024/03/20 09:35:14;;;;;;;14.88;10.55;;;;;;;35.40;15.24;100795.56;5043694;28;20047;-72
2024/03/20 09:37:40;;;;;;;14.38;9.80;;;;;;;34.29;13.92;100815.16;5072276;28;20766;-72
2024/03/20 09:40:10;;;;;;;14.52;9.05;;;;;;;34.23;15.07;100824.69;5044540;28;20047;-74
2024/03/20 09:42:38;;;;;;;14.07;9.87;;;;;;;33.21;14.60;100788.91;5049125;28;20040;-74
2024/03/20 09:45:06;;;;;;;16.25;9.20;;;;;;;32.47;14.09;100790.81;5046592;28;20048;-77
2024/03/20 09:47:32;;;;;;;20.08;9.70;;;;;;;33.13;15.62;100784.19;5048638;28;20509;-74
2024/03/20 09:49:59;;;;;;;16.35;10.38;;;;;;;34.44;15.38;100813.75;5039103;28;20520;-72
2024/03/20 09:52:26;;;;;;;14.98;9.35;;;;;;;32.94;14.09;100830.81;5030819;28;20028;-74
2024/03/20 09:54:53;;;;;;;17.77;9.57;;;;;;;32.84;14.27;100801.13;5045830;28;20040;-73
2024/03/20 09:57:24;;;;;;;12.43;8.82;;;;;;;31.95;14.33;100810.41;5045921;28;20037;-73
2024/03/20 09:59:52;;;;;;;15.00;9.15;;;;;;;32.12;15.56;100808.97;5057235;28;20066;-72
2024/03/20 10:02:21;;;;;;;18.65;9.93;;;;;;;33.10;15.57;100795.28;5030478;28;20044;-75
2024/03/20 10:04:47;;;;;;;14.05;8.55;;;;;;;32.21;15.14;100744.56;5060669;28;20145;-74
2024/03/20 10:07:15;;;;;;;10.45;8.25;;;;;;;33.44;15.75;100797.66;5060099;28;20040;-75
2024/03/20 10:09:46;;;;;;;14.37;9.03;;;;;;;33.82;15.18;100794.25;5058577;28;20587;-74
2024/03/20 10:12:16;;;;;;;13.93;9.70;;;;;;;34.57;14.96;100799.06;5040856;28;20162;-74
2024/03/20 10:14:43;;;;;;;13.52;8.52;;;;;;;33.73;14.58;100766.28;5048190;28;20494;-71
2024/03/20 10:17:17;;;;;;;14.98;8.82;;;;;;;33.44;14.84;100807.56;5058606;28;20098;-73
2024/03/20 10:19:47;;;;;;;14.55;9.75;;;;;;;31.91;13.52;100781.19;5060359;28;20036;-73
2024/03/20 10:22:13;;;;;;;14.63;8.80;;;;;;;28.16;14.91;100751.94;5044472;28;20036;-72
2024/03/20 10:24:41;;;;;;;14.35;9.43;;;;;;;26.31;16.54;100784.03;5027455;28;20045;-72
2024/03/20 10:27:09;;;;;;;14.52;9.90;;;;;;;25.60;16.94;100801.44;5049850;28;20032;-72
2024/03/20 10:29:38;;;;;;;16.27;9.82;;;;;;;24.01;17.22;100783.03;5056281;28;20059;-71
2024/03/20 10:32:06;;;;;;;15.57;9.77;;;;;;;21.91;18.11;100811.78;5071171;28;20185;-74
2024/03/20 10:34:33;;;;;;;13.02;8.88;;;;;;;20.91;19.40;100797.00;5042684;28;20460;-72
2024/03/20 10:36:59;;;;;;;16.98;9.98;;;;;;;20.05;20.18;100815.75;5045600;28;20569;-73
2024/03/20 10:39:27;;;;;;;15.20;9.32;;;;;;;19.41;21.02;100825.59;5057057;28;20046;-74
2024/03/20 10:41:55;;;;;;;16.70;10.15;;;;;;;19.22;21.41;100820.84;5042617;28;20525;-73
2024/03/20 10:44:23;;;;;;;13.98;8.80;;;;;;;19.06;21.64;100806.38;5028494;28;20506;-73
2024/03/20 10:46:54;;;;;;;18.52;9.95;;;;;;;18.69;21.72;100788.88;5045795;28;20131;-73
2024/03/20 10:49:24;;;;;;;16.20;9.05;;;;;;;18.39;22.33;100807.25;5051957;28;20040;-73
2024/03/20 10:51:53;;;;;;;13.63;9.00;;;;;;;17.57;22.39;100774.03;5056510;28;20043;-72
2024/03/20 10:54:20;;;;;;;18.90;8.88;;;;;;;17.06;23.14;100769.84;5033857;28;20085;-73
2024/03/20 10:56:48;;;;;;;14.90;8.80;;;;;;;17.16;23.64;100813.47;5035167;28;20035;-74
2024/03/20 10:59:19;;;;;;;13.48;9.57;;;;;;;16.43;23.84;100779.78;5056623;28;20046;-74
2024/03/20 11:02:00;;;;;;;19.45;10.13;;;;;;;15.18;24.01;100816.53;5050496;28;20032;-73
2024/03/20 11:04:39;;;;;;;19.85;9.40;;;;;;;14.15;25.24;100816.59;5068746;28;20043;-71
2024/03/20 11:07:24;;;;;;;14.48;8.70;;;;;;;13.95;26.54;100814.13;5038504;28;20506;-72
2024/03/20 11:09:51;;;;;;;15.13;9.32;;;;;;;13.77;27.02;100808.16;5055519;28;20603;-72
2024/03/20 11:12:33;;;;;;;15.55;9.23;;;;;;;13.74;27.44;100768.94;5044033;28;20135;-72
2024/03/20 11:15:06;;;;;;;17.00;9.25;;;;;;;13.96;27.58;100777.47;5053932;28;20043;-71